Stockholm, Maine
Current Conditions -  °F | °C
As of 5:29 AM on Sunday 26 Oct 2014 (Local Time) from KCAR Reporting Station
Light Rain Light Rain  
Wind Chill: 37°   Ceiling: 600
Heat Index: 41°   Visibility: 8mi
Dew Point: 39°   Wind: 6mph
Humidity: 93%   Direction: 100°E
Pressure: 29.36"   Gusts: NA
Location:  47.04°N, 68.14°W
Report Text: KCAR 260929Z AUTO 10005KT 8SM -RA OVC006 05/04 A2936 RMK AO2 P0003 T00500039
Loading
Personal Weather Stations






























Interactive Weather Map New forecast layout! Learn more

10-Day Weather Forecast

Advertisements
Track Severe Weather on mobile